createdAt,value
2018-01-11T00:00:19.155Z,92.26
2018-01-11T00:02:46.083Z,92.87
2018-01-11T00:05:12.944Z,92.64
2018-01-11T00:07:39.963Z,93.09
2018-01-11T00:10:06.845Z,92.11
2018-01-11T00:12:34.327Z,92.61
2018-01-11T00:15:01.245Z,93.93
2018-01-11T00:17:29.554Z,94.28
2018-01-11T00:19:57.214Z,93.61
2018-01-11T00:22:24.032Z,94.92
2018-01-11T00:24:51.035Z,94.67
2018-01-11T00:27:17.963Z,94.89
2018-01-11T00:29:45.577Z,95.00
2018-01-11T00:32:12.776Z,94.76
2018-01-11T00:34:39.818Z,95.23
2018-01-11T00:37:07.388Z,94.82
2018-01-11T00:39:34.618Z,94.02
2018-01-11T00:42:01.796Z,95.28
2018-01-11T00:44:28.925Z,94.05
2018-01-11T00:46:56.143Z,93.20
2018-01-11T00:49:23.628Z,94.66
2018-01-11T00:51:51.465Z,92.98
2018-01-11T00:54:18.490Z,95.46
2018-01-11T00:56:48.015Z,96.03
2018-01-11T00:59:15.132Z,96.04
2018-01-11T01:01:44.276Z,96.00
2018-01-11T01:04:11.342Z,94.77
2018-01-11T01:06:38.401Z,95.96
2018-01-11T01:09:06.886Z,95.30
2018-01-11T01:11:35.280Z,96.03
2018-01-11T01:14:05.765Z,94.75
2018-01-11T01:16:34.140Z,96.64
2018-01-11T01:19:01.270Z,93.87
2018-01-11T01:21:30.146Z,96.21
2018-01-11T01:23:57.430Z,95.50
2018-01-11T01:26:25.261Z,97.08
2018-01-11T01:28:52.998Z,93.82
2018-01-11T01:31:20.026Z,94.62
2018-01-11T01:33:46.925Z,96.05
2018-01-11T01:36:14.297Z,93.95
2018-01-11T01:38:43.197Z,93.60
2018-01-11T01:41:10.129Z,96.01
2018-01-11T01:43:36.982Z,94.15
2018-01-11T01:46:04.369Z,96.08
2018-01-11T01:48:43.269Z,94.76
2018-01-11T01:51:11.242Z,96.17
2018-01-11T01:53:38.337Z,96.68
2018-01-11T01:56:06.350Z,97.12
2018-01-11T01:58:33.294Z,97.73
2018-01-11T02:01:00.194Z,97.69
2018-01-11T02:03:27.857Z,95.51
2018-01-11T02:05:55.015Z,96.12
2018-01-11T02:08:21.915Z,96.95
2018-01-11T02:10:49.531Z,97.00
2018-01-11T02:13:16.899Z,95.89
2018-01-11T02:15:52.898Z,94.40
2018-01-11T02:18:23.494Z,94.10
2018-01-11T02:20:53.782Z,96.15
2018-01-11T02:23:24.700Z,96.60
2018-01-11T02:25:57.721Z,94.46
2018-01-11T02:31:11.344Z,96.36
2018-01-11T02:33:43.525Z,95.02
2018-01-11T02:36:11.846Z,95.68
2018-01-11T02:38:47.196Z,95.51
2018-01-11T02:46:53.970Z,93.95
2018-01-11T02:49:46.002Z,93.91
2018-01-11T02:52:16.447Z,94.70
2018-01-11T02:57:20.643Z,94.01
2018-01-11T03:17:56.435Z,97.91
2018-01-11T03:20:24.452Z,97.44
2018-01-11T03:22:57.304Z,95.93
2018-01-11T03:25:25.685Z,96.46
2018-01-11T03:27:54.345Z,97.06
2018-01-11T03:30:23.448Z,96.86
2018-01-11T03:32:51.681Z,97.51
2018-01-11T03:35:19.812Z,96.96
2018-01-11T03:37:48.997Z,95.99
2018-01-11T03:40:16.704Z,96.14
2018-01-11T03:42:44.697Z,97.12
2018-01-11T03:45:12.276Z,97.51
2018-01-11T03:47:39.927Z,97.49
2018-01-11T03:50:07.485Z,96.10
2018-01-11T03:52:35.008Z,95.07
2018-01-11T03:55:02.568Z,94.92
2018-01-11T03:57:31.054Z,94.77
2018-01-11T03:59:58.461Z,94.68
2018-01-11T04:02:43.306Z,94.45
2018-01-11T04:05:10.769Z,94.67
2018-01-11T04:07:39.486Z,95.02
2018-01-11T04:10:07.394Z,96.35
2018-01-11T04:12:34.911Z,97.28
2018-01-11T04:15:02.157Z,96.51
2018-01-11T04:17:29.598Z,97.18
2018-01-11T04:19:57.097Z,97.03
2018-01-11T04:22:25.430Z,96.57
2018-01-11T04:24:52.943Z,95.46
2018-01-11T04:27:22.315Z,97.03
2018-01-11T04:29:49.801Z,95.89
2018-01-11T04:32:17.267Z,95.78
2018-01-11T04:34:46.271Z,95.76
2018-01-11T04:37:13.805Z,95.17
2018-01-11T04:39:44.035Z,94.87
2018-01-11T04:42:13.353Z,96.44
2018-01-11T04:44:41.573Z,97.27
2018-01-11T04:47:14.081Z,98.16
2018-01-11T04:49:42.963Z,98.01
2018-01-11T04:52:10.434Z,96.84
2018-01-11T04:54:44.126Z,95.80
2018-01-11T05:15:11.313Z,97.51
2018-01-11T05:17:42.699Z,96.54
2018-01-11T05:20:13.268Z,95.43
2018-01-11T05:23:03.780Z,95.19
2018-01-11T05:25:38.410Z,95.15
2018-01-11T05:28:08.992Z,95.10
2018-01-11T06:30:32.662Z,95.78
2018-01-11T07:07:24.782Z,98.24
2018-01-11T07:09:55.081Z,98.25
2018-01-11T07:12:26.131Z,98.62
2018-01-11T07:17:33.889Z,97.50
2018-01-11T07:22:40.445Z,98.17
2018-01-11T07:25:09.774Z,96.51
2018-01-11T07:27:43.552Z,97.47
2018-01-11T07:30:11.239Z,96.36
2018-01-11T07:32:41.009Z,96.37
2018-01-11T07:35:17.037Z,95.75
2018-01-11T07:37:44.687Z,96.33
2018-01-11T07:42:50.009Z,96.84
2018-01-11T07:45:23.207Z,96.99
2018-01-11T07:47:54.451Z,98.42
2018-01-11T07:50:26.977Z,97.11
2018-01-11T07:52:54.365Z,97.82
2018-01-11T07:55:21.639Z,97.45
2018-01-11T07:57:49.695Z,98.60
2018-01-11T08:00:17.628Z,99.21
2018-01-11T08:02:45.384Z,99.57
2018-01-11T08:05:12.608Z,98.34
2018-01-11T08:07:39.891Z,96.67
2018-01-11T08:10:07.323Z,97.11
2018-01-11T08:12:36.188Z,96.63
2018-01-11T08:15:04.120Z,98.00
2018-01-11T08:17:31.420Z,97.07
2018-01-11T08:19:59.319Z,96.36
2018-01-11T08:22:26.599Z,95.88
2018-01-11T08:24:54.090Z,95.64
2018-01-11T08:27:21.431Z,96.81
2018-01-11T08:29:49.039Z,97.35
2018-01-11T08:32:16.487Z,96.15
2018-01-11T08:34:43.887Z,95.72
2018-01-11T08:37:11.266Z,95.74
2018-01-11T08:39:38.561Z,95.97
2018-01-11T08:42:06.022Z,96.06
2018-01-11T08:44:33.461Z,96.02
2018-01-11T08:47:00.806Z,96.00
2018-01-11T08:49:28.016Z,98.02
2018-01-11T08:51:55.177Z,98.71
2018-01-11T08:54:22.461Z,99.02
2018-01-11T08:56:49.589Z,99.16
2018-01-11T08:59:19.186Z,98.96
2018-01-11T09:01:47.044Z,97.90
2018-01-11T09:04:14.437Z,97.38
2018-01-11T09:06:42.543Z,96.13
2018-01-11T09:09:09.783Z,95.72
2018-01-11T09:11:37.032Z,95.83
2018-01-11T09:14:04.605Z,95.95
2018-01-11T09:16:31.806Z,96.74
2018-01-11T09:18:58.854Z,96.24
2018-01-11T09:21:26.145Z,95.23
2018-01-11T09:23:53.606Z,95.34
2018-01-11T09:26:20.848Z,95.31
2018-01-11T09:28:49.047Z,94.93
2018-01-11T09:31:16.417Z,94.81
2018-01-11T09:33:43.609Z,95.22
2018-01-11T09:36:10.875Z,96.18
2018-01-11T09:38:38.242Z,95.54
2018-01-11T09:41:06.527Z,95.39
2018-01-11T09:43:34.923Z,94.90
2018-01-11T09:46:02.011Z,94.92
2018-01-11T09:48:29.308Z,95.17
2018-01-11T09:50:57.320Z,95.98
2018-01-11T09:53:24.530Z,95.57
2018-01-11T09:55:51.626Z,95.61
2018-01-11T09:58:19.743Z,94.42
2018-01-11T10:00:47.019Z,95.32
2018-01-11T10:03:13.948Z,95.50
2018-01-11T10:05:40.904Z,95.43
2018-01-11T10:08:07.980Z,95.17
2018-01-11T10:10:35.017Z,94.84
2018-01-11T10:13:02.130Z,95.08
2018-01-11T10:15:29.972Z,95.09
2018-01-11T10:18:00.567Z,95.53
2018-01-11T10:20:28.054Z,93.67
2018-01-11T10:25:35.570Z,94.87
2018-01-11T10:28:02.941Z,94.85
2018-01-11T10:30:30.360Z,92.93
2018-01-11T10:32:58.742Z,93.40
2018-01-11T10:35:26.386Z,93.75
2018-01-11T10:37:54.656Z,92.20
2018-01-11T10:40:23.026Z,92.80
2018-01-11T10:42:50.986Z,94.30
2018-01-11T10:45:23.526Z,93.81
2018-01-11T10:47:53.998Z,93.59
2018-01-11T10:50:23.457Z,93.52
2018-01-11T11:10:52.158Z,93.00
2018-01-11T11:55:48.639Z,90.67
2018-01-11T12:46:09.220Z,88.34
2018-01-11T13:04:20.244Z,88.84
2018-01-11T13:07:18.146Z,89.38
2018-01-11T13:09:50.083Z,88.90
2018-01-11T13:12:17.042Z,89.03
2018-01-11T13:14:44.019Z,88.98
2018-01-11T13:17:12.354Z,88.79
2018-01-11T13:19:39.884Z,88.94
2018-01-11T13:24:39.595Z,88.74
2018-01-11T13:29:43.295Z,88.62
2018-01-11T13:32:10.882Z,88.73
2018-01-11T13:34:38.121Z,88.42
2018-01-11T13:37:15.922Z,88.62
2018-01-11T13:42:38.933Z,88.65
2018-01-11T13:45:17.154Z,88.73
2018-01-11T13:47:50.434Z,88.18
2018-01-11T13:50:20.516Z,88.74
2018-01-11T13:52:51.268Z,88.61
2018-01-11T14:03:57.059Z,88.93
2018-01-11T14:06:26.301Z,88.93
2018-01-11T14:09:01.909Z,88.73
2018-01-11T14:11:42.559Z,88.97
2018-01-11T14:14:29.718Z,88.79
2018-01-11T14:25:19.242Z,89.33
2018-01-11T14:27:55.933Z,89.13
2018-01-11T14:52:21.864Z,89.46
2018-01-11T15:49:36.209Z,89.94
2018-01-11T15:52:29.131Z,90.47
2018-01-11T15:55:07.491Z,90.66
2018-01-11T17:15:37.564Z,91.49
2018-01-11T18:32:58.818Z,94.44
2018-01-11T18:35:27.141Z,94.18
2018-01-11T18:37:56.544Z,94.95
2018-01-11T18:40:24.538Z,98.42
2018-01-11T19:24:33.069Z,100.00
2018-01-11T19:27:01.143Z,97.64
2018-01-11T20:09:19.937Z,96.55
2018-01-11T20:11:49.867Z,96.23
2018-01-11T20:14:20.034Z,97.37
2018-01-11T20:16:55.684Z,99.26
2018-01-11T20:22:00.523Z,97.84
2018-01-11T20:24:30.322Z,97.24
2018-01-11T20:29:38.942Z,98.37
2018-01-11T20:32:07.640Z,99.83
2018-01-11T20:55:27.686Z,97.08
2018-01-11T21:40:28.546Z,99.59
2018-01-11T21:42:55.407Z,100.00
2018-01-11T21:45:22.357Z,100.00
2018-01-11T21:47:50.158Z,100.00
2018-01-11T21:50:17.079Z,100.00
2018-01-11T21:52:43.929Z,98.50
2018-01-11T21:55:10.888Z,97.92
2018-01-11T21:57:39.123Z,97.71
2018-01-11T22:00:06.039Z,97.51
2018-01-11T22:02:32.829Z,98.66
2018-01-11T22:05:00.431Z,98.06
2018-01-11T22:07:27.293Z,98.01
2018-01-11T22:09:54.690Z,99.91
2018-01-11T22:12:21.560Z,100.00
2018-01-11T22:14:48.392Z,100.00
2018-01-11T22:17:15.296Z,100.00
2018-01-11T22:19:42.245Z,100.00
2018-01-11T22:22:09.100Z,100.00
2018-01-11T22:24:36.043Z,100.00
2018-01-11T22:27:02.950Z,100.00
2018-01-11T22:29:29.779Z,100.00
2018-01-11T22:31:56.672Z,100.00
2018-01-11T22:34:23.510Z,100.00
2018-01-11T22:36:50.337Z,100.00
2018-01-11T22:39:17.894Z,100.00
2018-01-11T22:41:44.706Z,100.00
2018-01-11T22:44:11.561Z,100.00
2018-01-11T22:46:38.435Z,100.00
2018-01-11T22:49:05.253Z,99.13
2018-01-11T22:51:32.836Z,99.64
2018-01-11T22:54:00.400Z,100.00
2018-01-11T22:56:27.208Z,100.00
2018-01-11T22:58:54.033Z,100.00
2018-01-11T23:01:21.647Z,100.00
2018-01-11T23:03:48.438Z,100.00
2018-01-11T23:06:15.328Z,100.00
2018-01-11T23:08:42.889Z,100.00
2018-01-11T23:11:09.715Z,100.00
2018-01-11T23:13:36.548Z,100.00
2018-01-11T23:16:03.402Z,100.00
2018-01-11T23:18:30.222Z,100.00
2018-01-11T23:20:56.995Z,100.00
2018-01-11T23:23:23.849Z,100.00
2018-01-11T23:25:51.041Z,100.00
2018-01-11T23:28:17.868Z,100.00
2018-01-11T23:30:44.675Z,100.00
2018-01-11T23:33:12.146Z,100.00
2018-01-11T23:35:38.971Z,100.00
2018-01-11T23:38:05.798Z,100.00
2018-01-11T23:40:32.639Z,100.00
2018-01-11T23:42:59.477Z,100.00
2018-01-11T23:45:27.011Z,100.00
2018-01-11T23:47:53.891Z,100.00
2018-01-11T23:50:20.761Z,100.00
2018-01-11T23:52:47.620Z,100.00
2018-01-11T23:55:14.400Z,100.00
2018-01-11T23:57:42.014Z,100.00
